• Join FlightAware (Why Join?)
  • Login
  • US Flag 
05:17AM EDT


 

Airport Tracker/Info


-or-


 

Live Flight TrackerFlight Track Log ✈ ASQ3266 ✈ 16-Jun-2013 ✈ KCRP - KIAH

Flight Track Log - Related Links

Times and Time Zones

All times are in EDT time to prevent confusion due to time zone crossing. See the ASQ3266 flight status page for this flight to view local times or setup timezone preferences in your user account.

Time Position Orientation Groundspeed Altitude Reporting Facility
EDT Latitude Longitude Course Direction KTS MPH feet Rate Location/Type
08:11PM 27.7556 -97.4908 35° Northeast 158 182 1,100  Level Houston Center
08:12PM 27.7369 -97.4556 121° Southeast 175 201 2,700 1,740 Climbing Houston Center
08:13PM 27.8006 -97.4208 26° Northeast 273 314 4,500 1,920 Climbing Houston Center
08:14PM 27.8984 -97.4328 344° North  Level FlightAware Approximate
08:14PM 27.8611 -97.4000 17° North 279 321 6,500  Level Houston Center
08:15PM 27.9471 -97.3923 35° Northeast  Level FlightAware Approximate
08:15PM 27.9353 -97.3769 15° North 276 318 8,700  Level Houston Center
08:16PM 27.9971 -97.3523 35° Northeast  Level FlightAware Approximate
08:16PM 28.0153 -97.3392 23° Northeast 300 345 10,200  Level Houston Center
08:17PM 28.0900 -97.2744 37° Northeast 333 383 10,900 780 Climbing Houston Center
08:18PM 28.1697 -97.2014 39° Northeast 363 418 11,900 1,020 Climbing Houston Center
08:19PM 28.2678 -97.1108 39° Northeast 379 436 13,100 1,080 Climbing Houston Center
08:20PM 28.3581 -97.0467 32° Northeast 381 438 14,200 960 Climbing Houston Center
08:21PM 28.4492 -96.9806 33° Northeast 387 445 15,200 960 Climbing Houston Center
08:22PM 28.5414 -96.9136 33° Northeast 393 452 16,200 840 Climbing Houston Center
08:23PM 28.6328 -96.8456 33° Northeast 393 452 17,000 360 Climbing Houston Center
08:24PM 28.7297 -96.7744 33° Northeast 412 474 17,000  Level Houston Center
08:25PM 28.8492 -96.6861 33° Northeast 426 490 17,000  Level Houston Center
08:26PM 28.9472 -96.6139 33° Northeast 424 488 17,000  Level Houston Center
08:27PM 29.0439 -96.5408 33° Northeast 422 486 17,000  Level Houston Center
08:28PM 29.1436 -96.4681 33° Northeast 426 490 17,000 -120 Level Houston Center
08:29PM 29.2428 -96.3947 33° Northeast 427 491 16,800 -1,260 Descending Houston Center
08:30PM 29.3589 -96.3072 33° Northeast 419 482 14,400 -2,640 Descending Houston Center
08:31PM 29.4331 -96.2511 33° Northeast 391 450 12,000 -2,220 Descending Houston Center
08:32PM 29.5386 -96.1719 33° Northeast 386 444 9,900 -1,020 Descending Houston Center
08:33PM 29.5839 -96.1000 54° Northeast 327 376 10,000 -600 Climbing Houston Center
08:34PM 29.6353 -96.0150 55° Northeast 302 348 8,900 -1,260 Descending Houston Center
08:35PM 29.6853 -95.9369 54° Northeast 297 342 7,500 -1,320 Descending Houston Center
08:35PM 29.6936 -95.9206 60° Northeast 295 339 7,300 -540 Descending Houston Center
08:36PM 29.7408 -95.8778 38° Northeast 270 311 7,000 -300 Descending Houston Center
08:36PM 29.7531 -95.8667 38° Northeast 277 319 7,000  Level Houston Center
08:37PM 29.8114 -95.8214 34° Northeast 274 315 7,000 -240 Level Houston Center
08:38PM 29.8783 -95.7703 34° Northeast 277 319 6,600 -720 Descending Houston Center
08:39PM 29.9314 -95.7306 33° Northeast 248 285 5,700 -840 Descending Houston Center
08:39PM 29.9422 -95.7219 35° Northeast 264 304 5,600 -840 Descending Houston Center
08:40PM 29.9842 -95.6858 37° Northeast 222 255 4,900 -780 Descending Houston Center
08:41PM 29.9903 -95.6764 53° Northeast 236 272 4,800 -900 Descending Houston Center
08:41PM 29.9922 -95.6100 88° East 243 280 4,000 -1,020 Descending Houston Center
08:42PM 29.9928 -95.6014 86° East 237 273 3,800 -1,020 Descending Houston Center
08:42PM 29.9925 -95.5450 90° East 214 246 3,100 -1,140 Descending Houston Center
08:43PM 29.9928 -95.5178 89° East 221 254 2,700 -960 Descending Houston Center